createdAt,value
2018-07-22T00:01:27.576Z,11.83
2018-07-22T00:03:56.637Z,11.10
2018-07-22T00:06:25.660Z,10.90
2018-07-22T00:08:55.233Z,9.97
2018-07-22T00:11:24.227Z,10.27
2018-07-22T00:13:53.277Z,10.60
2018-07-22T00:16:22.265Z,9.50
2018-07-22T00:18:51.244Z,9.93
2018-07-22T00:21:20.250Z,11.33
2018-07-22T00:23:49.253Z,10.27
2018-07-22T00:26:18.251Z,10.07
2018-07-22T00:28:47.225Z,11.20
2018-07-22T00:31:16.244Z,11.53
2018-07-22T00:33:45.238Z,11.13
2018-07-22T00:36:14.273Z,11.07
2018-07-22T00:38:43.276Z,9.93
2018-07-22T00:41:12.290Z,11.23
2018-07-22T00:43:41.275Z,10.87
2018-07-22T00:46:10.270Z,11.83
2018-07-22T00:48:39.267Z,12.67
2018-07-22T00:51:08.319Z,11.43
2018-07-22T00:53:37.306Z,11.00
2018-07-22T00:56:06.321Z,11.10
2018-07-22T00:58:35.284Z,12.27
2018-07-22T01:01:04.282Z,11.30
2018-07-22T01:03:33.244Z,11.10
2018-07-22T01:06:02.233Z,11.47
2018-07-22T01:08:31.251Z,12.23
2018-07-22T01:11:00.262Z,11.23
2018-07-22T01:13:29.257Z,12.93
2018-07-22T01:15:58.285Z,13.33
2018-07-22T01:18:27.274Z,11.63
2018-07-22T01:20:56.281Z,11.57
2018-07-22T01:23:25.270Z,11.63
2018-07-22T01:25:54.321Z,11.80
2018-07-22T01:28:23.344Z,11.50
2018-07-22T01:30:52.385Z,13.63
2018-07-22T01:33:21.364Z,12.03
2018-07-22T01:35:50.350Z,11.97
2018-07-22T01:38:19.340Z,12.73
2018-07-22T01:40:48.496Z,12.47
2018-07-22T01:43:17.500Z,12.07
2018-07-22T01:45:46.586Z,11.77
2018-07-22T01:48:15.683Z,13.03
2018-07-22T01:50:44.726Z,12.33
2018-07-22T01:53:13.779Z,13.27
2018-07-22T01:55:42.796Z,13.97
2018-07-22T01:58:11.781Z,14.17
2018-07-22T02:00:40.340Z,13.73
2018-07-22T02:03:09.330Z,11.37
2018-07-22T02:05:38.335Z,15.17
2018-07-22T02:08:07.350Z,14.93
2018-07-22T02:10:36.353Z,12.90
2018-07-22T02:13:05.354Z,13.20
2018-07-22T02:15:34.350Z,11.57
2018-07-22T02:18:03.333Z,10.87
2018-07-22T02:20:32.317Z,11.80
2018-07-22T02:23:01.354Z,13.20
2018-07-22T02:25:30.380Z,13.13
2018-07-22T02:27:59.414Z,12.47
2018-07-22T02:30:28.394Z,11.80
2018-07-22T02:32:57.421Z,10.47
2018-07-22T02:35:26.413Z,11.47
2018-07-22T02:37:55.425Z,10.73
2018-07-22T02:40:24.397Z,10.70
2018-07-22T02:42:53.449Z,9.13
2018-07-22T02:45:22.449Z,9.10
2018-07-22T02:47:51.470Z,9.90
2018-07-22T02:50:20.513Z,12.67
2018-07-22T02:52:49.544Z,10.67
2018-07-22T02:55:18.565Z,10.50
2018-07-22T02:57:47.589Z,9.97
2018-07-22T03:00:16.578Z,10.20
2018-07-22T03:02:45.645Z,12.23
2018-07-22T03:05:14.675Z,10.73
2018-07-22T03:07:43.714Z,11.43
2018-07-22T03:10:12.786Z,9.67
2018-07-22T03:12:41.813Z,10.03
2018-07-22T03:15:10.813Z,9.37
2018-07-22T03:17:39.847Z,16.50
2018-07-22T03:20:09.033Z,10.30
2018-07-22T03:22:38.070Z,10.27
2018-07-22T03:25:07.059Z,10.20
2018-07-22T03:27:36.081Z,10.47
2018-07-22T03:30:05.260Z,11.93
2018-07-22T03:32:34.301Z,12.93
2018-07-22T03:35:03.300Z,12.60
2018-07-22T03:37:32.352Z,11.63
2018-07-22T03:40:01.385Z,11.30
2018-07-22T03:42:30.579Z,10.97
2018-07-22T03:44:59.568Z,13.43
2018-07-22T03:47:28.811Z,11.57
2018-07-22T03:49:57.783Z,11.63
2018-07-22T03:52:26.822Z,11.10
2018-07-22T03:54:55.868Z,11.90
2018-07-22T03:57:24.894Z,12.53
2018-07-22T03:59:53.888Z,12.57
2018-07-22T04:02:22.933Z,13.13
2018-07-22T04:04:51.930Z,12.77
2018-07-22T04:07:20.513Z,12.03
2018-07-22T04:09:49.499Z,13.23
2018-07-22T04:12:18.513Z,13.10
2018-07-22T04:14:47.504Z,12.73
2018-07-22T04:17:16.581Z,12.17
2018-07-22T04:19:45.642Z,12.93
2018-07-22T04:22:14.689Z,13.17
2018-07-22T04:24:43.738Z,12.20
2018-07-22T04:27:12.745Z,12.47
2018-07-22T04:29:41.769Z,11.93
2018-07-22T04:32:10.810Z,12.77
2018-07-22T04:34:39.858Z,12.40
2018-07-22T04:37:08.859Z,11.93
2018-07-22T04:39:37.893Z,12.67
2018-07-22T04:42:06.911Z,11.90
2018-07-22T04:44:35.942Z,12.20
2018-07-22T04:47:04.920Z,12.73
2018-07-22T04:49:33.953Z,11.73
2018-07-22T04:52:02.932Z,12.13
2018-07-22T04:54:31.922Z,12.07
2018-07-22T04:57:00.927Z,11.60
2018-07-22T04:59:29.920Z,11.50
2018-07-22T05:01:58.933Z,11.10
2018-07-22T05:04:27.933Z,12.33
2018-07-22T05:06:56.889Z,10.90
2018-07-22T05:09:25.916Z,11.97
2018-07-22T05:11:54.906Z,12.10
2018-07-22T05:14:23.924Z,11.83
2018-07-22T05:16:52.889Z,12.57
2018-07-22T05:19:21.914Z,11.23
2018-07-22T05:21:50.888Z,11.67
2018-07-22T05:24:19.877Z,11.13
2018-07-22T05:26:48.828Z,11.00
2018-07-22T05:29:17.838Z,10.67
2018-07-22T05:31:47.062Z,10.77
2018-07-22T05:34:16.153Z,10.57
2018-07-22T05:36:45.222Z,10.10
2018-07-22T05:39:14.262Z,10.27
2018-07-22T05:41:43.238Z,11.20
2018-07-22T05:44:12.216Z,9.77
2018-07-22T05:46:41.210Z,10.03
2018-07-22T05:49:10.204Z,10.23
2018-07-22T05:51:38.730Z,10.87
2018-07-22T05:54:07.749Z,10.70
2018-07-22T05:56:36.767Z,9.97
2018-07-22T05:59:06.216Z,10.27
2018-07-22T06:01:35.217Z,10.57
2018-07-22T06:04:04.225Z,9.50
2018-07-22T06:06:33.193Z,10.30
2018-07-22T06:09:02.193Z,10.13
2018-07-22T06:11:31.177Z,10.23
2018-07-22T06:14:00.182Z,9.57
2018-07-22T06:16:29.168Z,9.80
2018-07-22T06:18:58.144Z,9.53
2018-07-22T06:21:27.145Z,10.47
2018-07-22T06:23:56.122Z,9.70
2018-07-22T06:26:25.150Z,10.53
2018-07-22T06:28:54.122Z,9.77
2018-07-22T06:31:23.160Z,9.80
2018-07-22T06:33:52.144Z,9.07
2018-07-22T06:36:21.200Z,9.63
2018-07-22T06:38:49.729Z,9.63
2018-07-22T06:41:18.743Z,9.73
2018-07-22T06:43:47.762Z,10.17
2018-07-22T06:46:16.859Z,10.10
2018-07-22T06:48:45.447Z,9.80
2018-07-22T06:51:14.522Z,9.27
2018-07-22T06:53:43.523Z,9.70
2018-07-22T06:56:12.599Z,9.57
2018-07-22T06:58:41.569Z,9.20
2018-07-22T07:01:10.571Z,9.73
2018-07-22T07:03:39.509Z,9.50
2018-07-22T07:06:08.526Z,9.13
2018-07-22T07:08:38.116Z,9.80
2018-07-22T07:11:07.160Z,9.17
2018-07-22T07:13:36.185Z,9.93
2018-07-22T07:16:05.214Z,9.40
2018-07-22T07:18:34.215Z,10.00
2018-07-22T07:21:03.230Z,9.43
2018-07-22T07:23:32.229Z,9.37
2018-07-22T07:26:01.227Z,14.20
2018-07-22T07:28:30.182Z,10.00
2018-07-22T07:30:59.238Z,8.83
2018-07-22T07:33:28.288Z,9.30
2018-07-22T07:35:57.295Z,8.70
2018-07-22T07:38:26.350Z,8.50
2018-07-22T07:40:55.382Z,8.73
2018-07-22T07:43:24.362Z,8.43
2018-07-22T07:45:53.349Z,8.53
2018-07-22T07:48:22.322Z,7.93
2018-07-22T07:50:51.370Z,7.70
2018-07-22T07:53:20.383Z,7.67
2018-07-22T07:55:49.401Z,7.57
2018-07-22T07:58:18.356Z,7.23
2018-07-22T08:00:47.390Z,6.93
2018-07-22T08:03:16.368Z,7.47
2018-07-22T08:05:45.390Z,7.80
2018-07-22T08:08:14.411Z,8.00
2018-07-22T08:10:43.416Z,7.60
2018-07-22T08:13:12.404Z,7.53
2018-07-22T08:15:41.452Z,8.13
2018-07-22T08:18:10.449Z,8.23
2018-07-22T08:20:39.472Z,7.53
2018-07-22T08:23:08.551Z,7.67
2018-07-22T08:25:37.644Z,8.33
2018-07-22T08:28:06.584Z,8.53
2018-07-22T08:30:35.627Z,8.37
2018-07-22T08:33:04.605Z,8.73
2018-07-22T08:35:33.603Z,8.67
2018-07-22T08:38:02.623Z,9.13
2018-07-22T08:40:31.621Z,8.63
2018-07-22T08:43:00.632Z,8.50
2018-07-22T08:45:29.616Z,8.37
2018-07-22T08:47:58.616Z,8.50
2018-07-22T08:50:27.601Z,8.10
2018-07-22T08:52:56.613Z,8.90
2018-07-22T08:55:25.584Z,8.13
2018-07-22T08:57:54.637Z,8.47
2018-07-22T09:00:23.738Z,9.57
2018-07-22T09:02:52.849Z,8.63
2018-07-22T09:05:21.950Z,8.50
2018-07-22T09:07:50.970Z,8.00
2018-07-22T09:10:20.010Z,8.73
2018-07-22T09:12:49.019Z,7.90
2018-07-22T09:15:17.986Z,8.67
2018-07-22T09:17:47.028Z,8.97
2018-07-22T09:20:16.018Z,8.97
2018-07-22T09:22:45.337Z,10.10
2018-07-22T09:25:14.366Z,9.60
2018-07-22T09:27:43.394Z,9.07
2018-07-22T09:30:12.366Z,9.57
2018-07-22T09:32:41.853Z,9.83
2018-07-22T09:35:10.822Z,9.67
2018-07-22T09:37:39.849Z,9.93
2018-07-22T09:40:08.806Z,10.33
2018-07-22T09:42:37.859Z,10.27
2018-07-22T09:45:06.877Z,9.23
2018-07-22T09:47:35.967Z,9.67
2018-07-22T09:50:05.393Z,10.60
2018-07-22T09:52:34.437Z,10.43
2018-07-22T09:55:04.052Z,10.27
2018-07-22T09:57:33.132Z,9.67
2018-07-22T10:00:02.582Z,10.27
2018-07-22T10:02:31.713Z,11.27
2018-07-22T10:05:00.710Z,10.07
2018-07-22T10:07:29.716Z,10.00
2018-07-22T10:09:58.254Z,9.90
2018-07-22T10:12:27.313Z,9.67
2018-07-22T10:14:56.295Z,10.10
2018-07-22T10:17:25.361Z,9.23
2018-07-22T10:19:54.329Z,10.07
2018-07-22T10:22:23.393Z,9.67
2018-07-22T10:24:52.364Z,9.63
2018-07-22T10:27:21.391Z,10.30
2018-07-22T10:29:50.375Z,9.70
2018-07-22T10:32:19.453Z,9.50
2018-07-22T10:34:48.545Z,10.43
2018-07-22T10:37:17.625Z,9.90
2018-07-22T10:39:46.622Z,9.53
2018-07-22T10:42:15.664Z,9.50
2018-07-22T10:44:44.729Z,9.27
2018-07-22T10:47:13.916Z,9.90
2018-07-22T10:49:42.944Z,10.03
2018-07-22T10:52:11.943Z,9.10
2018-07-22T10:54:41.013Z,9.40
2018-07-22T10:57:09.598Z,9.00
2018-07-22T10:59:38.625Z,9.03
2018-07-22T11:02:07.790Z,9.80
2018-07-22T11:04:36.788Z,9.73
2018-07-22T11:07:05.752Z,9.03
2018-07-22T11:09:34.769Z,9.83
2018-07-22T11:12:03.784Z,9.50
2018-07-22T11:14:32.856Z,9.03
2018-07-22T11:17:01.869Z,9.43
2018-07-22T11:19:30.873Z,9.57
2018-07-22T11:21:59.842Z,10.07
2018-07-22T11:24:28.833Z,10.03
2018-07-22T11:26:58.300Z,11.50
2018-07-22T11:29:27.636Z,10.03
2018-07-22T11:31:56.611Z,9.63
2018-07-22T11:37:23.929Z,10.50
2018-07-22T11:39:52.929Z,10.27
2018-07-22T11:42:21.888Z,10.77
2018-07-22T11:44:51.254Z,11.77
2018-07-22T11:47:20.213Z,11.00
2018-07-22T11:49:49.200Z,12.67
2018-07-22T11:52:18.154Z,12.13
2018-07-22T11:54:47.140Z,12.17
2018-07-22T11:57:16.145Z,12.13
2018-07-22T11:59:45.133Z,12.57
2018-07-22T12:02:14.097Z,12.20
2018-07-22T12:04:43.153Z,13.63
2018-07-22T12:07:12.149Z,13.20
2018-07-22T12:09:40.711Z,12.93
2018-07-22T12:12:09.705Z,14.13
2018-07-22T12:14:38.745Z,14.17
2018-07-22T12:17:07.712Z,14.07
2018-07-22T12:19:36.264Z,13.07
2018-07-22T12:22:05.228Z,12.60
2018-07-22T12:24:34.343Z,12.97
2018-07-22T12:27:03.327Z,14.67
2018-07-22T12:29:32.314Z,12.87
2018-07-22T12:32:01.313Z,12.80
2018-07-22T12:34:30.389Z,13.10
2018-07-22T12:36:59.384Z,12.60
2018-07-22T12:39:28.394Z,13.57
2018-07-22T12:41:57.403Z,12.10
2018-07-22T12:44:26.435Z,12.83
2018-07-22T12:46:55.411Z,12.33
2018-07-22T12:49:24.405Z,12.97
2018-07-22T12:51:53.372Z,12.67
2018-07-22T12:54:22.381Z,13.93
2018-07-22T12:56:51.382Z,13.33
2018-07-22T12:59:20.421Z,13.87
2018-07-22T13:01:49.404Z,12.60
2018-07-22T13:04:18.421Z,13.90
2018-07-22T13:06:47.006Z,12.80
2018-07-22T13:09:15.988Z,12.67
2018-07-22T13:11:44.514Z,13.03
2018-07-22T13:14:13.545Z,13.97
2018-07-22T13:16:42.613Z,14.73
2018-07-22T13:19:12.225Z,14.07
2018-07-22T13:21:41.201Z,13.03
2018-07-22T13:24:10.221Z,14.10
2018-07-22T13:26:39.224Z,13.07
2018-07-22T13:29:08.185Z,14.03
2018-07-22T13:31:37.225Z,14.03
2018-07-22T13:34:06.442Z,14.47
2018-07-22T13:36:35.425Z,13.60
2018-07-22T13:39:07.070Z,14.10
2018-07-22T13:41:36.087Z,13.00
2018-07-22T13:44:05.077Z,13.83
2018-07-22T13:46:34.148Z,13.17
2018-07-22T13:49:03.137Z,12.00
2018-07-22T13:51:32.187Z,12.87
2018-07-22T13:54:01.166Z,11.83
2018-07-22T13:56:30.162Z,13.23
2018-07-22T13:58:59.156Z,12.47
2018-07-22T14:01:27.690Z,13.07
2018-07-22T14:03:56.663Z,13.30
2018-07-22T14:06:25.652Z,12.10
2018-07-22T14:08:54.594Z,12.10
2018-07-22T14:11:23.772Z,13.30
2018-07-22T14:13:52.837Z,14.00
2018-07-22T14:16:21.826Z,13.33
2018-07-22T14:18:50.892Z,12.87
2018-07-22T14:21:20.226Z,13.33
2018-07-22T14:23:49.164Z,11.67
2018-07-22T14:26:18.217Z,12.33
2018-07-22T14:28:47.148Z,13.33
2018-07-22T14:31:16.132Z,12.20
2018-07-22T14:33:45.108Z,11.73
2018-07-22T14:36:14.151Z,10.90
2018-07-22T14:38:43.172Z,11.23
2018-07-22T14:41:11.720Z,12.03
2018-07-22T14:43:40.687Z,12.13
2018-07-22T14:46:09.764Z,10.93
2018-07-22T14:48:38.746Z,11.67
2018-07-22T14:51:07.741Z,10.93
2018-07-22T14:53:36.723Z,11.53
2018-07-22T14:56:05.572Z,10.20
2018-07-22T14:58:34.550Z,10.47
2018-07-22T15:01:03.527Z,10.53
2018-07-22T15:03:32.509Z,11.27
2018-07-22T15:06:01.489Z,11.23
2018-07-22T15:08:30.429Z,10.57
2018-07-22T15:10:59.388Z,10.70
2018-07-22T15:13:28.331Z,10.80
2018-07-22T15:15:57.298Z,10.67
2018-07-22T15:18:26.254Z,10.73
2018-07-22T15:20:54.792Z,9.93
2018-07-22T15:23:23.725Z,10.20
2018-07-22T15:25:52.817Z,10.07
2018-07-22T15:28:21.771Z,11.30
2018-07-22T15:30:50.810Z,10.73
2018-07-22T15:33:19.304Z,10.37
2018-07-22T15:35:48.306Z,9.87
2018-07-22T15:38:17.261Z,11.03
2018-07-22T15:40:46.245Z,10.73
2018-07-22T15:43:15.218Z,10.53
2018-07-22T15:45:44.367Z,10.53
2018-07-22T15:48:13.312Z,10.50
2018-07-22T15:50:42.333Z,10.90
2018-07-22T15:53:11.401Z,10.33
2018-07-22T15:55:40.649Z,10.40
2018-07-22T15:58:09.444Z,10.67
2018-07-22T16:00:39.657Z,10.37
2018-07-22T16:03:08.719Z,10.60
2018-07-22T16:05:37.690Z,10.13
2018-07-22T16:08:06.827Z,10.23
2018-07-22T16:10:35.809Z,10.70
2018-07-22T16:13:04.793Z,10.67
2018-07-22T16:15:33.748Z,10.97
2018-07-22T16:18:02.709Z,10.67
2018-07-22T16:20:31.674Z,9.73
2018-07-22T16:23:00.789Z,10.90
2018-07-22T16:25:29.825Z,10.17
2018-07-22T16:27:58.797Z,10.20
2018-07-22T16:30:27.731Z,10.30
2018-07-22T16:32:56.767Z,9.37
2018-07-22T16:35:25.682Z,9.43
2018-07-22T16:37:54.637Z,9.57
2018-07-22T16:40:23.598Z,9.43
2018-07-22T16:42:52.856Z,10.60
2018-07-22T16:45:21.793Z,9.93
2018-07-22T16:47:50.808Z,10.97
2018-07-22T16:50:19.734Z,10.03
2018-07-22T16:52:48.701Z,9.57
2018-07-22T16:55:18.148Z,9.30
2018-07-22T16:57:47.109Z,9.00
2018-07-22T17:00:16.108Z,9.40
2018-07-22T17:02:45.088Z,8.63
2018-07-22T17:05:14.029Z,9.30
2018-07-22T17:07:43.026Z,8.77
2018-07-22T17:10:12.032Z,9.10
2018-07-22T17:12:41.026Z,9.10
2018-07-22T17:15:10.073Z,9.03
2018-07-22T17:17:39.021Z,9.57
2018-07-22T17:20:08.018Z,9.47
2018-07-22T17:22:36.981Z,9.13
2018-07-22T17:25:06.139Z,9.20
2018-07-22T17:27:35.231Z,10.00
2018-07-22T17:30:04.853Z,9.30
2018-07-22T17:32:33.885Z,9.83
2018-07-22T17:35:03.359Z,9.20
2018-07-22T17:37:32.402Z,9.70
2018-07-22T17:40:01.952Z,9.50
2018-07-22T17:42:32.353Z,9.20
2018-07-22T17:45:01.282Z,8.80
2018-07-22T17:47:31.057Z,9.17
2018-07-22T17:49:59.989Z,8.83
2018-07-22T17:52:28.970Z,10.07
2018-07-22T17:54:57.912Z,9.57
2018-07-22T17:57:26.431Z,9.87
2018-07-22T17:59:55.492Z,9.63
2018-07-22T18:02:24.046Z,9.37
2018-07-22T18:04:53.069Z,10.53
2018-07-22T18:07:22.058Z,9.70
2018-07-22T18:09:51.042Z,9.33
2018-07-22T18:12:19.989Z,9.57
2018-07-22T18:14:48.976Z,9.20
2018-07-22T18:17:18.094Z,9.47
2018-07-22T18:19:47.463Z,9.70
2018-07-22T18:22:16.427Z,9.67
2018-07-22T18:24:45.560Z,9.93
2018-07-22T18:27:14.540Z,9.60
2018-07-22T18:29:43.874Z,9.87
2018-07-22T18:32:13.078Z,9.63
2018-07-22T18:34:42.110Z,9.67
2018-07-22T18:37:12.077Z,9.27
2018-07-22T18:39:41.145Z,10.47
2018-07-22T18:42:09.671Z,10.73
2018-07-22T18:44:39.130Z,10.43
2018-07-22T18:47:08.213Z,10.57
2018-07-22T18:49:37.248Z,10.13
2018-07-22T18:52:06.233Z,10.13
2018-07-22T18:54:35.225Z,10.53
2018-07-22T18:57:03.834Z,9.23
2018-07-22T18:59:32.885Z,10.23
2018-07-22T19:02:01.908Z,9.70
2018-07-22T19:04:31.266Z,10.37
2018-07-22T19:07:00.233Z,9.83
2018-07-22T19:09:29.265Z,10.47
2018-07-22T19:11:58.461Z,10.40
2018-07-22T19:14:27.469Z,9.87
2018-07-22T19:16:56.622Z,10.50
2018-07-22T19:19:25.956Z,11.00
2018-07-22T19:21:54.919Z,10.17
2018-07-22T19:24:23.974Z,10.20
2018-07-22T19:26:52.966Z,9.23
2018-07-22T19:29:21.941Z,10.43
2018-07-22T19:31:51.151Z,10.53
2018-07-22T19:34:20.194Z,10.00
2018-07-22T19:36:49.149Z,10.70
2018-07-22T19:39:17.696Z,10.83
2018-07-22T19:41:46.675Z,11.50
2018-07-22T19:44:15.888Z,10.60
2018-07-22T19:46:46.163Z,11.40
2018-07-22T19:49:15.418Z,10.43
2018-07-22T19:51:44.748Z,10.30
2018-07-22T19:54:13.985Z,10.60
2018-07-22T19:56:44.329Z,10.37
2018-07-22T19:59:13.426Z,10.10
2018-07-22T20:01:43.332Z,9.93
2018-07-22T20:04:13.585Z,10.30
2018-07-22T20:06:43.503Z,10.40
2018-07-22T20:09:13.565Z,9.83
2018-07-22T20:11:43.348Z,10.20
2018-07-22T20:14:12.828Z,10.23
2018-07-22T20:16:42.993Z,10.80
2018-07-22T20:19:12.293Z,10.37
2018-07-22T20:21:41.274Z,10.47
2018-07-22T20:24:10.345Z,9.93
2018-07-22T20:26:39.249Z,10.33
2018-07-22T20:29:08.235Z,9.87
2018-07-22T20:31:37.234Z,9.60
2018-07-22T20:34:06.285Z,10.30
2018-07-22T20:36:35.214Z,9.43
2018-07-22T20:39:06.128Z,9.97
2018-07-22T20:41:36.613Z,9.97
2018-07-22T20:44:05.636Z,10.20
2018-07-22T20:46:34.602Z,10.00
2018-07-22T20:49:03.136Z,9.97
2018-07-22T20:51:32.096Z,10.77
2018-07-22T20:54:01.300Z,10.27
2018-07-22T20:56:30.296Z,9.47
2018-07-22T20:58:59.281Z,9.80
2018-07-22T21:01:28.257Z,10.20
2018-07-22T21:03:56.999Z,10.17
2018-07-22T21:06:26.026Z,9.83
2018-07-22T21:08:54.970Z,10.97
2018-07-22T21:11:24.011Z,10.93
2018-07-22T21:13:53.006Z,10.30
2018-07-22T21:16:22.009Z,10.67
2018-07-22T21:18:50.512Z,11.00
2018-07-22T21:21:19.505Z,10.70
2018-07-22T21:23:48.464Z,10.87
2018-07-22T21:26:17.457Z,11.03
2018-07-22T21:28:46.427Z,12.23
2018-07-22T21:31:15.450Z,11.17
2018-07-22T21:33:44.426Z,10.33
2018-07-22T21:36:13.428Z,11.13
2018-07-22T21:38:42.385Z,10.63
2018-07-22T21:41:11.484Z,12.23
2018-07-22T21:43:40.457Z,11.43
2018-07-22T21:46:09.511Z,11.83
2018-07-22T21:48:38.494Z,10.67
2018-07-22T21:51:07.485Z,11.63
2018-07-22T21:53:36.470Z,10.90
2018-07-22T21:56:05.449Z,11.83
2018-07-22T21:58:34.465Z,11.03
2018-07-22T22:01:05.334Z,11.03
2018-07-22T22:03:34.349Z,10.87
2018-07-22T22:06:03.397Z,11.47
2018-07-22T22:08:32.357Z,11.40
2018-07-22T22:11:01.342Z,11.87
2018-07-22T22:13:30.317Z,11.90
2018-07-22T22:15:58.898Z,12.30
2018-07-22T22:18:27.897Z,11.57
2018-07-22T22:20:56.487Z,12.47
2018-07-22T22:23:25.459Z,11.70
2018-07-22T22:25:54.481Z,10.80
2018-07-22T22:28:23.439Z,11.77
2018-07-22T22:30:52.485Z,11.43
2018-07-22T22:33:21.520Z,11.77
2018-07-22T22:35:50.560Z,11.30
2018-07-22T22:38:19.239Z,12.03
2018-07-22T22:40:47.820Z,11.67
2018-07-22T22:43:16.770Z,11.57
2018-07-22T22:45:45.779Z,11.50
2018-07-22T22:48:14.718Z,11.47
2018-07-22T22:50:43.708Z,11.47
2018-07-22T22:53:12.641Z,12.13
2018-07-22T22:55:41.619Z,11.60
2018-07-22T22:58:21.424Z,11.43
2018-07-22T23:00:50.416Z,12.57
2018-07-22T23:03:19.649Z,12.50
2018-07-22T23:05:48.650Z,12.33
2018-07-22T23:08:17.698Z,13.47
2018-07-22T23:10:46.703Z,13.17
2018-07-22T23:13:15.699Z,12.67
2018-07-22T23:15:44.678Z,12.97
2018-07-22T23:18:13.629Z,12.80
2018-07-22T23:20:42.652Z,12.27
2018-07-22T23:23:11.598Z,12.10
2018-07-22T23:25:40.608Z,12.57
2018-07-22T23:28:09.578Z,12.77
2018-07-22T23:30:38.592Z,12.00
2018-07-22T23:33:07.536Z,12.30
2018-07-22T23:35:36.537Z,12.13
2018-07-22T23:38:05.818Z,12.37
2018-07-22T23:40:34.858Z,12.43
2018-07-22T23:43:03.827Z,12.37
2018-07-22T23:45:32.817Z,12.13
2018-07-22T23:48:01.782Z,12.33
2018-07-22T23:50:30.730Z,11.43
2018-07-22T23:52:59.720Z,12.73
2018-07-22T23:55:28.239Z,12.00
2018-07-22T23:57:57.241Z,12.43
